Manakin Sabot, Virginia
Current Conditions -  °F | °C
As of 11:03 AM on Wednesday 22 Oct 2014 (Local Time) from KOFP Reporting Station
Moderate Rain Moderate Rain  
Wind Chill: 52°   Ceiling: 1100
Heat Index: 52°   Visibility: 4mi
Dew Point: 51°   Wind: 9mph
Humidity: 97%   Direction: 330°NNW
Pressure: 29.94"   Gusts: NA
Location:  37.65°N, 77.72°W
Report Text: KOFP 221503Z AUTO 33008KT 300V030 4SM RA BR BKN011 OVC019 11/11 A2994 RMK AO2 P0002 T01110106
Loading
Personal Weather Stations






























Interactive Weather Map New forecast layout! Learn more

10-Day Weather Forecast

Advertisements
Track Severe Weather on mobile